Time;durP1;ratioP1;P1;durP2;ratioP2;P2;SDS_P1;SDS_P2;PMS_P1;PMS_P2;Temp;Humidity;BMP_temperature;BMP_pressure;BME280_temperature;BME280_humidity;BME280_pressure;Samples;Min_cycle;Max_cycle;Signal;HPM_P1;HPM_P2
2021/05/04 00:00:05;;;;;;;6.10;1.40;;;35.80;10.20;;;;;;5095604;28;20076;-64
2021/05/04 00:02:32;;;;;;;4.25;1.08;;;35.80;9.60;;;;;;5097694;28;20095;-64
2021/05/04 00:04:58;;;;;;;4.60;1.33;;;35.70;9.50;;;;;;5096704;28;20069;-65
2021/05/04 00:07:25;;;;;;;7.95;1.25;;;35.60;9.40;;;;;;5095964;28;20068;-64
2021/05/04 00:09:51;;;;;;;10.60;1.40;;;35.50;9.90;;;;;;5100948;28;20108;-63
2021/05/04 00:12:18;;;;;;;5.80;1.20;;;35.40;9.60;;;;;;5094979;28;20452;-64
2021/05/04 00:14:45;;;;;;;7.78;1.20;;;35.20;9.50;;;;;;5101647;28;20093;-63
2021/05/04 00:17:12;;;;;;;5.63;1.40;;;35.20;9.70;;;;;;5098020;28;20096;-63
2021/05/04 00:19:39;;;;;;;4.55;1.20;;;35.20;9.40;;;;;;5098293;28;20072;-63
2021/05/04 00:22:06;;;;;;;5.97;1.40;;;34.90;9.30;;;;;;5096818;28;20111;-63
2021/05/04 00:24:33;;;;;;;3.95;1.20;;;35.00;10.00;;;;;;5098728;28;20069;-64
2021/05/04 00:26:59;;;;;;;5.85;1.20;;;35.00;9.60;;;;;;5102147;28;20076;-64
2021/05/04 00:29:26;;;;;;;5.80;0.95;;;35.10;9.80;;;;;;5100753;28;20091;-63
2021/05/04 00:31:52;;;;;;;9.52;1.17;;;35.10;9.30;;;;;;5100151;28;20091;-63
2021/05/04 00:34:18;;;;;;;4.45;1.02;;;35.10;9.10;;;;;;5099274;28;20126;-63
2021/05/04 00:36:45;;;;;;;4.75;1.30;;;35.00;9.30;;;;;;5102309;28;20100;-62
2021/05/04 00:39:11;;;;;;;6.05;1.15;;;34.90;9.50;;;;;;5097748;28;20069;-63
2021/05/04 00:41:38;;;;;;;8.48;1.38;;;34.90;9.20;;;;;;5101372;28;20073;-62
2021/05/04 00:44:04;;;;;;;5.47;1.30;;;34.90;9.50;;;;;;5101470;28;20107;-63
2021/05/04 00:46:31;;;;;;;3.10;1.10;;;34.80;9.60;;;;;;5100230;28;20072;-62
2021/05/04 00:48:57;;;;;;;3.58;0.98;;;34.80;9.30;;;;;;5098787;28;20080;-64
2021/05/04 00:51:24;;;;;;;9.02;1.10;;;34.80;9.50;;;;;;5101338;28;20080;-63
2021/05/04 00:53:50;;;;;;;12.02;1.80;;;34.80;9.50;;;;;;5099390;28;20064;-64
2021/05/04 00:56:19;;;;;;;2.80;1.00;;;34.80;9.60;;;;;;5104793;28;20131;-63
2021/05/04 00:58:48;;;;;;;6.85;1.10;;;34.70;9.20;;;;;;5083166;28;20080;-63
2021/05/04 01:01:15;;;;;;;6.50;1.63;;;34.60;9.60;;;;;;5101320;28;20436;-63
2021/05/04 01:03:42;;;;;;;4.65;1.30;;;34.50;10.20;;;;;;5100495;28;20075;-64
2021/05/04 01:06:08;;;;;;;5.55;1.02;;;34.40;9.90;;;;;;5082271;28;20077;-63
2021/05/04 01:08:36;;;;;;;6.78;1.75;;;34.50;9.70;;;;;;5101234;28;20100;-63
2021/05/04 01:11:03;;;;;;;8.15;1.50;;;34.40;10.40;;;;;;5098941;28;20088;-63
2021/05/04 01:13:30;;;;;;;13.48;1.92;;;34.40;10.40;;;;;;5102612;28;20072;-63
2021/05/04 01:15:57;;;;;;;7.57;1.40;;;34.40;9.90;;;;;;5081082;28;20107;-64
2021/05/04 01:18:23;;;;;;;7.53;1.73;;;34.40;10.30;;;;;;5100489;28;20075;-64
2021/05/04 01:20:50;;;;;;;10.25;1.50;;;34.30;10.30;;;;;;5098766;28;20076;-63
2021/05/04 01:23:17;;;;;;;12.48;1.90;;;34.20;10.20;;;;;;5103769;28;20076;-64
2021/05/04 01:25:44;;;;;;;7.63;1.40;;;34.00;9.90;;;;;;5097955;28;20513;-63
2021/05/04 01:28:11;;;;;;;10.98;1.70;;;34.00;10.20;;;;;;5082232;28;20073;-64
2021/05/04 01:30:38;;;;;;;7.03;1.33;;;33.90;10.00;;;;;;5104341;28;20076;-63
2021/05/04 01:33:04;;;;;;;7.68;1.35;;;33.90;9.90;;;;;;5101069;28;20080;-63
2021/05/04 01:35:31;;;;;;;4.95;1.17;;;34.00;9.80;;;;;;5099032;28;20180;-64
2021/05/04 01:37:58;;;;;;;7.40;1.27;;;34.20;10.00;;;;;;5098300;28;20559;-62
2021/05/04 01:40:24;;;;;;;6.50;1.33;;;34.10;10.10;;;;;;5100868;28;20099;-62
2021/05/04 01:42:51;;;;;;;10.43;1.35;;;34.10;10.10;;;;;;5101334;28;20103;-63
2021/05/04 01:45:18;;;;;;;7.20;1.33;;;34.00;10.00;;;;;;5100754;28;20155;-63
2021/05/04 01:47:44;;;;;;;10.10;1.40;;;34.00;10.00;;;;;;5100891;28;20112;-64
2021/05/04 01:50:13;;;;;;;7.10;1.30;;;33.90;10.00;;;;;;5100977;28;20568;-64
2021/05/04 01:52:39;;;;;;;10.52;1.50;;;33.70;10.00;;;;;;5102364;28;20552;-64
2021/05/04 01:55:07;;;;;;;6.20;1.15;;;33.40;10.20;;;;;;5080425;28;20073;-63
2021/05/04 01:57:34;;;;;;;3.53;1.20;;;33.20;10.20;;;;;;5097716;28;20092;-63
2021/05/04 02:00:04;;;;;;;4.72;1.40;;;33.10;10.40;;;;;;5094779;28;20097;-63
2021/05/04 02:02:31;;;;;;;7.03;1.33;;;32.90;10.70;;;;;;5095866;28;20081;-63
2021/05/04 02:04:57;;;;;;;6.65;1.40;;;32.80;10.90;;;;;;5095163;28;20131;-63
2021/05/04 02:07:24;;;;;;;6.68;1.52;;;32.60;10.80;;;;;;5097450;28;20087;-63
2021/05/04 02:09:51;;;;;;;8.63;1.67;;;32.40;11.00;;;;;;5094378;28;20096;-64
2021/05/04 02:12:17;;;;;;;7.85;1.67;;;32.20;10.90;;;;;;5094625;28;20079;-64
2021/05/04 02:14:44;;;;;;;7.97;1.40;;;32.10;11.00;;;;;;5098690;28;20079;-63
2021/05/04 02:17:10;;;;;;;9.70;1.83;;;32.00;10.80;;;;;;5087552;28;20092;-64
2021/05/04 02:19:38;;;;;;;11.00;2.13;;;31.90;11.10;;;;;;5095558;28;20157;-63
2021/05/04 02:22:05;;;;;;;8.25;1.77;;;31.80;11.20;;;;;;5096761;28;20237;-64
2021/05/04 02:24:32;;;;;;;10.52;1.65;;;31.70;11.80;;;;;;5093994;28;20542;-63
2021/05/04 02:26:58;;;;;;;7.35;1.52;;;31.60;11.90;;;;;;5092523;28;20161;-63
2021/05/04 02:29:25;;;;;;;11.77;1.88;;;31.50;11.80;;;;;;5092399;28;20065;-65
2021/05/04 02:31:51;;;;;;;7.22;1.70;;;31.30;12.40;;;;;;5097137;28;20131;-65
2021/05/04 02:34:18;;;;;;;5.35;1.70;;;31.20;11.90;;;;;;5080578;28;20162;-65
2021/05/04 02:36:44;;;;;;;5.10;1.65;;;31.10;11.90;;;;;;5099151;28;20594;-63
2021/05/04 02:39:11;;;;;;;10.70;1.95;;;31.00;12.10;;;;;;5099838;28;20144;-64
2021/05/04 02:41:37;;;;;;;13.65;2.13;;;30.80;12.40;;;;;;5098324;28;20088;-64
2021/05/04 02:44:05;;;;;;;9.18;1.73;;;30.70;12.60;;;;;;5098996;28;20137;-64
2021/05/04 02:46:33;;;;;;;8.10;2.45;;;30.60;13.20;;;;;;5094120;28;20086;-64
2021/05/04 02:48:59;;;;;;;16.40;2.83;;;30.50;13.50;;;;;;5097524;28;20103;-64
2021/05/04 02:51:25;;;;;;;17.80;2.78;;;30.40;13.70;;;;;;5097391;28;20159;-64
2021/05/04 02:53:52;;;;;;;14.77;2.55;;;30.30;14.10;;;;;;5101427;28;20080;-64
2021/05/04 02:56:19;;;;;;;12.43;2.70;;;30.20;14.00;;;;;;5098475;28;20179;-65
2021/05/04 02:58:45;;;;;;;14.02;3.13;;;30.00;14.10;;;;;;5101059;28;20129;-64
2021/05/04 03:01:12;;;;;;;11.90;3.35;;;29.90;14.30;;;;;;5097264;28;20073;-64
2021/05/04 03:03:40;;;;;;;16.45;3.75;;;29.70;14.70;;;;;;5095915;28;20148;-65
2021/05/04 03:06:07;;;;;;;11.93;3.20;;;29.70;14.90;;;;;;5095408;28;20175;-64
2021/05/04 03:08:33;;;;;;;20.25;3.42;;;29.60;15.10;;;;;;5095598;28;20155;-63
2021/05/04 03:11:00;;;;;;;16.30;3.20;;;29.50;15.40;;;;;;5099351;28;20148;-64
2021/05/04 03:13:31;;;;;;;12.35;3.10;;;29.40;15.60;;;;;;5096973;28;20079;-62
2021/05/04 03:15:59;;;;;;;11.85;2.63;;;29.30;15.40;;;;;;5097948;28;20095;-63
2021/05/04 03:18:26;;;;;;;10.82;2.53;;;29.10;15.30;;;;;;5094800;28;20104;-65
2021/05/04 03:20:53;;;;;;;15.20;2.90;;;29.00;15.30;;;;;;5091098;28;20118;-63
2021/05/04 03:23:21;;;;;;;16.88;2.92;;;28.90;15.10;;;;;;5096175;28;20125;-63
2021/05/04 03:25:48;;;;;;;20.42;3.13;;;28.90;15.30;;;;;;5101004;28;20080;-64
2021/05/04 03:28:16;;;;;;;19.23;3.50;;;28.90;15.70;;;;;;5098193;28;20100;-64
2021/05/04 03:30:43;;;;;;;15.60;3.15;;;28.90;15.80;;;;;;5094924;28;20076;-63
2021/05/04 03:33:10;;;;;;;19.55;3.10;;;28.70;15.90;;;;;;5094708;28;20080;-63
2021/05/04 03:35:37;;;;;;;23.42;4.38;;;28.70;16.00;;;;;;5075896;28;20154;-62
2021/05/04 03:38:04;;;;;;;17.00;3.15;;;28.60;15.90;;;;;;5091672;28;20076;-63
2021/05/04 03:40:31;;;;;;;31.10;4.28;;;28.40;15.50;;;;;;5075264;28;20069;-55
2021/05/04 03:43:00;;;;;;;31.77;5.28;;;28.40;16.00;;;;;;5091354;28;20076;-56
2021/05/04 03:45:28;;;;;;;50.90;7.97;;;28.40;15.10;;;;;;5095654;28;20385;-56
2021/05/04 03:47:55;;;;;;;41.75;10.48;;;28.50;14.90;;;;;;5095016;28;20599;-54
2021/05/04 03:50:24;;;;;;;76.22;12.45;;;28.50;15.00;;;;;;5080672;28;20088;-57
2021/05/04 03:52:52;;;;;;;61.92;10.60;;;28.50;15.10;;;;;;5094754;28;20525;-60
2021/05/04 03:55:19;;;;;;;46.72;8.70;;;28.60;15.70;;;;;;5090892;28;20196;-57
2021/05/04 03:57:46;;;;;;;76.90;8.32;;;28.70;16.60;;;;;;5092478;28;20541;-59
2021/05/04 04:00:13;;;;;;;42.70;6.75;;;28.70;17.70;;;;;;5096648;28;20080;-57
2021/05/04 04:02:41;;;;;;;42.35;5.82;;;28.70;18.70;;;;;;5097078;28;20424;-54
2021/05/04 04:05:08;;;;;;;47.30;5.70;;;28.70;19.00;;;;;;5099367;28;20072;-56
2021/05/04 04:07:35;;;;;;;47.20;5.10;;;28.70;19.80;;;;;;5092981;28;20077;-56
2021/05/04 04:10:02;;;;;;;33.53;4.85;;;28.70;19.60;;;;;;5096491;28;20076;-53
2021/05/04 04:12:28;;;;;;;36.00;5.50;;;28.70;19.80;;;;;;5099384;28;20076;-54
2021/05/04 04:14:55;;;;;;;56.30;6.03;;;28.70;19.50;;;;;;5097503;28;20096;-54
2021/05/04 04:17:22;;;;;;;50.25;5.65;;;28.70;19.90;;;;;;5100605;28;20100;-55
2021/05/04 04:19:49;;;;;;;46.72;5.35;;;28.70;20.10;;;;;;5098343;28;20076;-55
2021/05/04 04:22:16;;;;;;;57.03;5.97;;;28.60;20.00;;;;;;5097569;28;20082;-54
2021/05/04 04:24:43;;;;;;;70.10;5.85;;;28.60;20.00;;;;;;5096147;28;20076;-54
2021/05/04 04:27:10;;;;;;;54.10;5.53;;;28.60;19.90;;;;;;5099285;28;20155;-60
2021/05/04 04:29:37;;;;;;;64.82;5.28;;;28.50;19.80;;;;;;5100601;28;20436;-57
2021/05/04 04:32:04;;;;;;;51.92;4.78;;;28.60;19.80;;;;;;5095418;28;20488;-55
2021/05/04 04:34:31;;;;;;;59.97;6.00;;;28.60;19.80;;;;;;5095861;28;20530;-56
2021/05/04 04:36:57;;;;;;;42.70;6.07;;;28.60;19.70;;;;;;5092036;28;20556;-54
2021/05/04 04:39:25;;;;;;;60.55;6.35;;;28.50;19.80;;;;;;5098165;28;20077;-57
2021/05/04 04:41:51;;;;;;;46.90;6.53;;;28.50;19.60;;;;;;5078876;28;20155;-57
2021/05/04 04:44:18;;;;;;;40.60;6.78;;;28.40;19.60;;;;;;5094199;28;20068;-56
2021/05/04 04:46:45;;;;;;;44.58;5.97;;;28.40;19.50;;;;;;5094634;28;20131;-55
2021/05/04 04:49:16;;;;;;;53.45;4.93;;;28.40;19.80;;;;;;5102842;28;20075;-57
2021/05/04 04:51:44;;;;;;;37.47;4.50;;;28.40;19.40;;;;;;5098991;28;20075;-59
2021/05/04 04:54:10;;;;;;;44.97;5.00;;;28.40;19.40;;;;;;5094780;28;20069;-58
2021/05/04 04:56:37;;;;;;;37.10;5.25;;;28.40;19.30;;;;;;5103183;28;20187;-58
2021/05/04 04:59:05;;;;;;;46.45;5.68;;;28.40;19.30;;;;;;5094793;28;20076;-57
2021/05/04 05:01:33;;;;;;;49.72;4.93;;;28.30;19.30;;;;;;5097012;28;20406;-55
2021/05/04 05:04:01;;;;;;;37.83;4.95;;;28.30;19.20;;;;;;5095003;28;20077;-57
2021/05/04 05:06:27;;;;;;;41.70;4.47;;;28.20;19.30;;;;;;5093246;28;20540;-54
2021/05/04 05:08:54;;;;;;;27.27;4.00;;;28.20;19.50;;;;;;5101846;28;20107;-56
2021/05/04 05:11:21;;;;;;;45.65;4.70;;;28.20;19.40;;;;;;5094372;28;20486;-57
2021/05/04 05:13:48;;;;;;;30.60;3.97;;;28.20;19.50;;;;;;5095636;28;20073;-57
2021/05/04 05:16:17;;;;;;;32.53;4.00;;;28.10;19.20;;;;;;5092421;28;20520;-54
2021/05/04 05:18:44;;;;;;;18.98;4.05;;;28.10;19.30;;;;;;5098771;28;20073;-57
2021/05/04 05:21:14;;;;;;;26.48;3.80;;;28.10;19.30;;;;;;5099359;28;20077;-60
2021/05/04 05:23:42;;;;;;;24.20;4.30;;;28.10;19.30;;;;;;5094210;28;20477;-57
2021/05/04 05:26:08;;;;;;;27.13;3.78;;;28.00;19.20;;;;;;5096824;28;20164;-52
2021/05/04 05:28:36;;;;;;;30.35;5.13;;;27.90;19.40;;;;;;5098499;28;20115;-54
2021/05/04 05:31:02;;;;;;;41.90;6.43;;;27.90;19.50;;;;;;5098295;28;20540;-57
2021/05/04 05:33:28;;;;;;;25.25;6.65;;;27.80;19.70;;;;;;5099081;28;20068;-54
2021/05/04 05:35:55;;;;;;;39.40;8.38;;;27.80;19.70;;;;;;5071577;28;20096;-53
2021/05/04 05:38:21;;;;;;;44.58;8.35;;;27.80;19.60;;;;;;5090747;28;20429;-57
2021/05/04 05:40:48;;;;;;;53.53;9.98;;;27.70;19.60;;;;;;5095245;28;20077;-57
2021/05/04 05:43:17;;;;;;;46.35;9.75;;;27.70;20.10;;;;;;5098925;28;20080;-58
2021/05/04 05:45:44;;;;;;;48.30;8.50;;;27.60;20.00;;;;;;5097801;28;20072;-59
2021/05/04 05:48:11;;;;;;;39.55;6.93;;;27.60;19.80;;;;;;5094074;28;20104;-56
2021/05/04 05:50:37;;;;;;;39.00;6.78;;;27.60;19.80;;;;;;5095918;28;20076;-56
2021/05/04 05:53:04;;;;;;;42.70;6.88;;;27.50;20.00;;;;;;5093442;28;20076;-57
2021/05/04 05:55:31;;;;;;;47.10;8.30;;;27.40;20.00;;;;;;5095855;28;20428;-54
2021/05/04 05:57:58;;;;;;;47.00;7.45;;;27.40;20.00;;;;;;5090735;28;20084;-57
2021/05/04 06:00:26;;;;;;;37.22;7.72;;;27.40;20.30;;;;;;5097237;28;20077;-59
2021/05/04 06:02:52;;;;;;;39.38;7.45;;;27.30;20.50;;;;;;5096128;28;20072;-57
2021/05/04 06:05:19;;;;;;;44.83;7.40;;;27.30;20.70;;;;;;5095751;28;20076;-58
2021/05/04 06:07:45;;;;;;;40.50;6.97;;;27.20;21.40;;;;;;5090861;28;20175;-57
2021/05/04 06:10:13;;;;;;;42.58;7.15;;;27.10;21.50;;;;;;5095167;28;20072;-59
2021/05/04 06:12:40;;;;;;;39.08;5.65;;;27.00;21.40;;;;;;5095490;28;20519;-58
2021/05/04 06:15:07;;;;;;;42.90;6.00;;;27.00;21.60;;;;;;5094961;28;20093;-58
2021/05/04 06:17:34;;;;;;;45.22;6.20;;;26.80;21.70;;;;;;5100259;28;20103;-58
2021/05/04 06:20:00;;;;;;;30.33;5.90;;;26.80;21.80;;;;;;5091993;28;20079;-55
2021/05/04 06:22:27;;;;;;;45.50;5.20;;;26.70;21.70;;;;;;5056346;28;20096;-56
2021/05/04 06:24:53;;;;;;;53.17;6.18;;;26.60;21.70;;;;;;5093899;28;20072;-58
2021/05/04 06:27:20;;;;;;;29.50;5.63;;;26.60;22.10;;;;;;5096958;28;20483;-57
2021/05/04 06:29:46;;;;;;;47.53;5.78;;;26.50;22.30;;;;;;5096345;28;20061;-55
2021/05/04 06:32:15;;;;;;;47.10;6.38;;;26.40;22.50;;;;;;5092817;28;20077;-58
2021/05/04 06:34:42;;;;;;;41.53;5.93;;;26.30;22.80;;;;;;5096206;28;20410;-58
2021/05/04 06:37:10;;;;;;;36.33;5.75;;;26.30;22.70;;;;;;5096715;28;20184;-56
2021/05/04 06:39:36;;;;;;;30.60;5.35;;;26.30;22.80;;;;;;5089968;28;20097;-57
2021/05/04 06:42:03;;;;;;;34.53;5.72;;;26.20;22.70;;;;;;5098232;28;20080;-58
2021/05/04 06:44:30;;;;;;;38.17;6.03;;;26.20;22.80;;;;;;5078217;28;20080;-57
2021/05/04 06:46:56;;;;;;;38.25;6.07;;;26.20;23.20;;;;;;5092953;28;20112;-58
2021/05/04 06:49:23;;;;;;;35.85;6.15;;;26.10;23.10;;;;;;5078877;28;20068;-55
2021/05/04 06:51:49;;;;;;;52.55;6.45;;;26.00;23.20;;;;;;5093676;28;20448;-57
2021/05/04 06:54:16;;;;;;;45.05;6.28;;;25.90;23.40;;;;;;5074285;28;20436;-56
2021/05/04 06:56:42;;;;;;;37.38;5.57;;;25.90;23.80;;;;;;5062101;28;20100;-58
2021/05/04 06:59:09;;;;;;;38.42;6.10;;;25.90;24.00;;;;;;5100231;28;20563;-54
2021/05/04 07:01:35;;;;;;;31.83;6.85;;;25.90;23.90;;;;;;5086125;28;20080;-54
2021/05/04 07:04:02;;;;;;;36.72;5.75;;;25.80;24.00;;;;;;5090006;28;20452;-57
2021/05/04 07:06:28;;;;;;;38.97;5.78;;;25.70;23.60;;;;;;5093057;28;20081;-55
2021/05/04 07:08:55;;;;;;;38.45;6.00;;;25.60;23.70;;;;;;5092066;28;20073;-57
2021/05/04 07:11:21;;;;;;;41.22;6.70;;;25.60;23.90;;;;;;5092389;28;20077;-57
2021/05/04 07:13:48;;;;;;;32.45;7.20;;;25.60;24.40;;;;;;5093934;28;20079;-56
2021/05/04 07:16:14;;;;;;;45.03;6.35;;;25.50;24.30;;;;;;5091744;28;20092;-57
2021/05/04 07:18:41;;;;;;;39.22;7.78;;;25.50;24.60;;;;;;5099386;28;20130;-53
2021/05/04 07:21:09;;;;;;;36.13;7.03;;;25.40;24.90;;;;;;5091840;28;20121;-54
2021/05/04 07:23:38;;;;;;;40.83;6.72;;;25.40;24.70;;;;;;5089452;28;20075;-55
2021/05/04 07:26:05;;;;;;;41.78;7.30;;;25.40;24.90;;;;;;5088476;28;20110;-53
2021/05/04 07:28:32;;;;;;;37.05;6.28;;;25.40;25.10;;;;;;5087338;28;20072;-55
2021/05/04 07:30:59;;;;;;;47.97;7.03;;;25.30;24.80;;;;;;5091825;28;20452;-56
2021/05/04 07:33:25;;;;;;;41.25;7.47;;;25.20;24.70;;;;;;5100112;28;20627;-54
2021/05/04 07:35:53;;;;;;;38.83;7.32;;;25.20;25.00;;;;;;5092815;28;20444;-55
2021/05/04 07:38:20;;;;;;;50.45;8.85;;;25.20;25.00;;;;;;5091068;28;20081;-56
2021/05/04 07:40:46;;;;;;;42.95;7.95;;;25.20;24.80;;;;;;5090908;28;20072;-57
2021/05/04 07:43:13;;;;;;;47.38;8.77;;;25.20;25.30;;;;;;5095343;28;20521;-53
2021/05/04 07:45:39;;;;;;;44.42;10.50;;;25.10;25.10;;;;;;5093821;28;20081;-53
2021/05/04 07:48:09;;;;;;;38.25;9.75;;;25.10;25.40;;;;;;5089446;28;20477;-54
2021/05/04 07:50:37;;;;;;;55.83;10.05;;;25.10;25.40;;;;;;5090348;28;20088;-52
2021/05/04 07:53:03;;;;;;;48.20;9.45;;;25.10;25.20;;;;;;5091553;28;20514;-55
2021/05/04 07:55:30;;;;;;;34.13;8.98;;;25.00;25.10;;;;;;5096675;28;20213;-53
2021/05/04 07:57:58;;;;;;;50.45;10.05;;;25.10;25.30;;;;;;5098924;28;20080;-54
2021/05/04 08:00:25;;;;;;;49.25;8.80;;;25.00;25.30;;;;;;5093309;28;20079;-54
2021/05/04 08:02:51;;;;;;;42.25;8.02;;;24.90;25.60;;;;;;5091882;28;20080;-52
2021/05/04 08:05:18;;;;;;;57.38;8.23;;;24.90;25.80;;;;;;5093683;28;20447;-53
2021/05/04 08:07:44;;;;;;;39.88;8.38;;;24.90;25.90;;;;;;5091267;28;20453;-57
2021/05/04 08:10:11;;;;;;;51.28;8.35;;;24.90;26.10;;;;;;5101192;28;20126;-55
2021/05/04 08:12:38;;;;;;;37.85;7.55;;;24.80;25.60;;;;;;5095018;28;20084;-56
2021/05/04 08:15:06;;;;;;;40.53;7.65;;;24.80;25.90;;;;;;5091549;28;20072;-56
2021/05/04 08:17:35;;;;;;;35.53;6.75;;;24.70;25.70;;;;;;5091473;28;20145;-53
2021/05/04 08:20:03;;;;;;;31.17;6.22;;;24.70;25.90;;;;;;5091304;28;20069;-57
2021/05/04 08:22:30;;;;;;;40.38;6.10;;;24.70;25.60;;;;;;5091401;28;20076;-57
2021/05/04 08:25:00;;;;;;;24.13;4.45;;;24.60;25.40;;;;;;5094851;28;20544;-54
2021/05/04 08:27:27;;;;;;;15.70;4.47;;;24.60;25.00;;;;;;5092643;28;20081;-55
2021/05/04 08:29:53;;;;;;;10.45;3.40;;;24.50;24.60;;;;;;5089658;28;20103;-56
2021/05/04 08:32:20;;;;;;;16.00;3.60;;;24.40;24.60;;;;;;5093598;28;20436;-55
2021/05/04 08:34:46;;;;;;;38.08;12.35;;;24.40;24.40;;;;;;5088838;28;20600;-55
2021/05/04 08:37:13;;;;;;;45.17;14.77;;;24.30;24.30;;;;;;5091331;28;20093;-58
2021/05/04 08:39:39;;;;;;;20.23;5.15;;;24.30;24.20;;;;;;5074099;28;20068;-55
2021/05/04 08:42:06;;;;;;;15.18;3.80;;;24.30;24.10;;;;;;5091662;28;20072;-55
2021/05/04 08:44:34;;;;;;;12.05;2.83;;;24.30;24.20;;;;;;5099394;28;20073;-57
2021/05/04 08:47:02;;;;;;;15.98;3.13;;;24.30;24.30;;;;;;5094879;28;20136;-57
2021/05/04 08:49:30;;;;;;;12.40;3.25;;;24.30;24.00;;;;;;5100821;28;20076;-57
2021/05/04 08:51:56;;;;;;;8.30;3.08;;;24.30;24.00;;;;;;5100271;28;20083;-57
2021/05/04 08:54:23;;;;;;;14.77;2.78;;;24.30;23.90;;;;;;5101791;28;20111;-56
2021/05/04 08:56:50;;;;;;;12.02;3.25;;;24.20;23.80;;;;;;5079003;28;20144;-54
2021/05/04 08:59:16;;;;;;;17.05;2.90;;;24.20;23.90;;;;;;5095825;28;20084;-56
2021/05/04 09:01:43;;;;;;;16.98;2.28;;;24.20;24.60;;;;;;5090239;28;20077;-53
2021/05/04 09:05:12;;;;;;;12.00;2.80;;;24.20;24.80;;;;;;5096254;28;20426;-54
2021/05/04 09:07:33;;;;;;;19.63;6.28;;;24.20;24.80;;;;;;5088508;28;20112;-57
2021/05/04 09:10:17;;;;;;;20.58;5.82;;;24.10;24.70;;;;;;5100450;28;20120;-57
2021/05/04 09:21:09;;;;;;;26.33;5.63;;;24.00;25.00;;;;;;5098007;28;20081;-57
2021/05/04 09:23:36;;;;;;;26.65;6.85;;;24.00;24.70;;;;;;5094065;28;20540;-57
2021/05/04 09:26:03;;;;;;;27.60;6.90;;;24.00;24.90;;;;;;5081036;28;20071;-54
2021/05/04 09:28:30;;;;;;;33.55;7.35;;;24.00;25.10;;;;;;5093394;28;20511;-57
2021/05/04 09:30:57;;;;;;;33.60;7.00;;;24.00;25.00;;;;;;5097561;28;20178;-55
2021/05/04 09:33:37;;;;;;;28.98;6.90;;;24.00;25.80;;;;;;5094527;28;20073;-55
2021/05/04 09:36:04;;;;;;;30.30;6.78;;;24.00;26.20;;;;;;5077527;28;20102;-55
2021/05/04 09:38:44;;;;;;;35.15;7.82;;;23.90;25.80;;;;;;5078034;28;20073;-52
2021/05/04 09:41:31;;;;;;;33.58;8.43;;;23.80;26.50;;;;;;5093648;28;20064;-58
2021/05/04 09:43:58;;;;;;;31.40;8.40;;;23.70;27.80;;;;;;5096196;28;20100;-56
2021/05/04 09:46:50;;;;;;;33.97;8.90;;;23.70;28.60;;;;;;5094563;28;20085;-54
2021/05/04 09:49:27;;;;;;;45.53;8.68;;;23.50;31.40;;;;;;5091241;28;20112;-55
2021/05/04 09:51:56;;;;;;;32.28;8.20;;;23.50;33.90;;;;;;5092043;28;20068;-54
2021/05/04 09:54:30;;;;;;;33.10;9.32;;;23.40;34.70;;;;;;5093890;28;20092;-55
2021/05/04 09:56:56;;;;;;;37.13;8.40;;;23.30;36.30;;;;;;5092808;28;20096;-56
2021/05/04 09:59:23;;;;;;;50.85;8.85;;;23.30;38.00;;;;;;5093575;28;20241;-54
2021/05/04 10:01:53;;;;;;;34.30;8.48;;;23.30;38.60;;;;;;5092485;28;20073;-57
2021/05/04 10:04:21;;;;;;;37.20;7.65;;;23.20;39.80;;;;;;5092280;28;20525;-54
2021/05/04 10:06:47;;;;;;;36.75;8.45;;;23.10;40.50;;;;;;5093858;28;20069;-59
2021/05/04 10:09:16;;;;;;;37.25;8.13;;;23.00;41.40;;;;;;5092779;28;20151;-55
2021/05/04 10:11:44;;;;;;;42.35;8.93;;;22.90;41.80;;;;;;5092586;28;20087;-55
2021/05/04 10:14:12;;;;;;;40.00;8.27;;;22.90;42.90;;;;;;5093793;28;20073;-55
2021/05/04 10:16:39;;;;;;;36.30;8.57;;;22.90;43.50;;;;;;5096621;28;20455;-56
2021/05/04 10:19:06;;;;;;;42.25;7.57;;;22.80;43.60;;;;;;5092928;28;20093;-56
2021/05/04 10:21:33;;;;;;;40.90;7.60;;;22.70;43.80;;;;;;5096587;28;20373;-53
2021/05/04 10:24:00;;;;;;;39.33;8.00;;;22.70;65.50;;;;;;5096230;28;20031;-55
2021/05/04 10:26:31;;;;;;;37.10;7.03;;;22.70;43.40;;;;;;5091425;28;20073;-54
2021/05/04 10:29:05;;;;;;;27.50;7.45;;;22.60;43.40;;;;;;5095713;28;20084;-53
2021/05/04 10:31:36;;;;;;;33.83;7.68;;;22.60;44.20;;;;;;5094249;28;20516;-56
2021/05/04 10:34:26;;;;;;;37.10;9.20;;;22.50;45.00;;;;;;5092941;28;20077;-56
2021/05/04 10:36:57;;;;;;;34.83;9.45;;;22.40;45.70;;;;;;5090213;28;20501;-56
2021/05/04 10:39:34;;;;;;;31.80;9.10;;;22.30;46.70;;;;;;5092546;28;20080;-54
2021/05/04 10:42:00;;;;;;;36.22;9.40;;;22.20;47.60;;;;;;5093001;28;20080;-53
2021/05/04 10:44:27;;;;;;;46.45;9.48;;;22.30;48.20;;;;;;5096772;28;20091;-55
2021/05/04 10:46:56;;;;;;;41.38;9.23;;;22.20;48.40;;;;;;5092025;28;20109;-56
2021/05/04 10:49:58;;;;;;;34.80;8.65;;;22.10;49.40;;;;;;5098006;28;20110;-54
2021/05/04 10:52:49;;;;;;;37.40;8.45;;;22.00;50.00;;;;;;5089155;28;20072;-57
2021/05/04 10:55:16;;;;;;;44.65;9.80;;;21.90;50.40;;;;;;5093667;28;20069;-56
2021/05/04 10:58:05;;;;;;;41.85;10.77;;;22.00;50.60;;;;;;5097219;28;20108;-52
2021/05/04 11:00:53;;;;;;;42.28;10.93;;;22.00;51.20;;;;;;5091507;28;20076;-53
2021/05/04 11:03:31;;;;;;;;;;;22.00;51.30;;;;;;5090594;28;20070;-57
2021/05/04 11:06:12;;;;;;;39.80;10.43;;;21.90;51.60;;;;;;5093723;28;19967;-54
2021/05/04 11:08:45;;;;;;;49.05;9.68;;;21.90;51.50;;;;;;5089312;28;20077;-57
2021/05/04 11:11:22;;;;;;;39.97;9.45;;;21.70;59.00;;;;;;5091090;28;20097;-54
2021/05/04 11:14:03;;;;;;;51.75;9.95;;;21.60;51.90;;;;;;5093180;28;20073;-53
2021/05/04 11:16:35;;;;;;;53.78;9.77;;;21.60;52.50;;;;;;5090862;28;20451;-56
2021/05/04 11:19:08;;;;;;;41.20;8.65;;;21.70;53.20;;;;;;5087065;28;20106;-57
2021/05/04 11:21:47;;;;;;;46.33;10.13;;;21.60;53.10;;;;;;5092558;28;20079;-57
2021/05/04 11:24:20;;;;;;;48.97;9.93;;;21.60;53.30;;;;;;5094769;28;20076;-53
2021/05/04 11:26:56;;;;;;;42.42;8.88;;;21.30;79.90;;;;;;5089598;28;20102;-57
2021/05/04 11:29:37;;;;;;;42.42;7.97;;;21.10;68.80;;;;;;5094020;28;20079;-56
2021/05/04 11:32:27;;;;;;;58.10;9.98;;;21.50;53.70;;;;;;5074109;28;20084;-55
2021/05/04 11:34:55;;;;;;;45.85;9.35;;;21.50;75.10;;;;;;5093264;28;20039;-52
2021/05/04 11:37:27;;;;;;;42.05;10.43;;;21.50;54.40;;;;;;5090882;28;20145;-57
2021/05/04 11:40:02;;;;;;;55.55;16.55;;;21.50;54.30;;;;;;5090603;28;20541;-54
2021/05/04 11:42:35;;;;;;;67.35;22.17;;;21.50;54.50;;;;;;5092888;28;20541;-54
2021/05/04 11:45:06;;;;;;;82.93;22.73;;;21.50;54.40;;;;;;5092428;28;20152;-55
2021/05/04 11:47:33;;;;;;;63.70;20.42;;;21.20;58.90;;;;;;5090724;28;20112;-55
2021/05/04 11:50:12;;;;;;;61.92;19.42;;;21.20;75.10;;;;;;5093227;28;20060;-55
2021/05/04 11:52:41;;;;;;;61.85;18.77;;;21.30;55.30;;;;;;5089626;28;20095;-57
2021/05/04 11:55:29;;;;;;;76.15;19.23;;;21.30;62.00;;;;;;5090900;28;20143;-55
2021/05/04 11:58:03;;;;;;;61.00;16.35;;;21.00;68.80;;;;;;5091592;28;20105;-55
2021/05/04 12:00:32;;;;;;;46.03;15.07;;;21.20;60.60;;;;;;5090964;28;20067;-53
2021/05/04 12:03:17;;;;;;;47.50;14.13;;;21.20;66.00;;;;;;5096285;28;20143;-53
2021/05/04 12:05:46;;;;;;;44.83;12.63;;;21.10;75.30;;;;;;5094043;28;20056;-54
2021/05/04 12:08:14;;;;;;;54.58;13.18;;;21.10;55.30;;;;;;5093148;28;20474;-56
2021/05/04 12:10:46;;;;;;;54.78;11.85;;;20.60;66.60;;;;;;5091855;28;20031;-57
2021/05/04 12:13:22;;;;;;;37.65;10.45;;;21.10;55.90;;;;;;5091345;28;20076;-57
2021/05/04 12:15:53;;;;;;;33.17;9.52;;;21.00;56.20;;;;;;5093595;28;20096;-56
2021/05/04 12:18:24;;;;;;;45.38;10.75;;;20.90;56.70;;;;;;5089801;28;20146;-53
2021/05/04 12:21:01;;;;;;;48.58;9.98;;;20.80;79.50;;;;;;5095913;28;20020;-56
2021/05/04 12:23:34;;;;;;;42.63;9.32;;;20.80;79.00;;;;;;5092933;28;20479;-54
2021/05/04 12:26:09;;;;;;;35.45;9.45;;;21.00;91.20;;;;;;5094246;28;20035;-57
2021/05/04 12:28:54;;;;;;;47.17;9.57;;;20.70;84.10;;;;;;5095844;28;20028;-57
2021/05/04 12:31:39;;;;;;;41.03;8.77;;;20.80;67.70;;;;;;5092328;28;20068;-51
2021/05/04 12:34:06;;;;;;;37.20;9.05;;;20.70;57.00;;;;;;5092805;28;20480;-56
2021/05/04 12:36:34;;;;;;;40.83;8.55;;;20.60;57.60;;;;;;5096753;28;20096;-56
2021/05/04 12:39:05;;;;;;;41.78;9.18;;;20.80;78.70;;;;;;5094744;28;20081;-54
2021/05/04 12:41:36;;;;;;;44.55;9.65;;;20.70;57.40;;;;;;5093394;28;20084;-56
2021/05/04 12:46:47;;;;;;;52.03;10.77;;;20.60;58.40;;;;;;5095186;28;20133;-56
2021/05/04 12:49:13;;;;;;;;;;;20.60;58.70;;;;;;5092084;28;20076;-52
2021/05/04 12:51:54;;;;;;;42.57;9.13;;;20.70;58.80;;;;;;5093342;28;20429;-52
2021/05/04 12:54:22;;;;;;;50.25;9.90;;;20.60;58.80;;;;;;5091594;28;20076;-55
2021/05/04 12:56:54;;;;;;;55.50;11.10;;;20.30;64.60;;;;;;5095801;28;20553;-55